createdAt,value
2019-04-19T00:01:20.542Z,12.28
2019-04-19T00:03:49.337Z,15.38
2019-04-19T00:06:36.515Z,14.07
2019-04-19T00:09:16.458Z,15.15
2019-04-19T00:11:40.265Z,11.75
2019-04-19T00:14:18.968Z,14.05
2019-04-19T00:16:55.530Z,12.63
2019-04-19T00:19:53.814Z,10.60
2019-04-19T00:22:42.717Z,13.98
2019-04-19T00:25:01.324Z,17.60
2019-04-19T00:27:44.178Z,17.77
2019-04-19T00:30:34.883Z,15.58
2019-04-19T00:33:08.486Z,14.73
2019-04-19T00:35:20.898Z,15.65
2019-04-19T00:37:53.236Z,15.57
2019-04-19T00:40:42.138Z,12.23
2019-04-19T00:43:26.306Z,14.00
2019-04-19T00:46:01.182Z,12.80
2019-04-19T00:48:32.951Z,15.03
2019-04-19T00:50:56.289Z,14.70
2019-04-19T00:53:24.102Z,11.80
2019-04-19T00:55:52.188Z,14.28
2019-04-19T00:58:18.491Z,13.15
2019-04-19T01:00:41.780Z,14.20
2019-04-19T01:03:13.444Z,13.48
2019-04-19T01:05:47.164Z,11.57
2019-04-19T01:08:13.968Z,12.30
2019-04-19T01:10:51.275Z,15.72
2019-04-19T01:13:18.987Z,17.42
2019-04-19T01:15:53.134Z,17.48
2019-04-19T01:18:23.368Z,17.15
2019-04-19T01:20:39.464Z,15.28
2019-04-19T01:23:13.087Z,15.75
2019-04-19T01:25:39.335Z,16.20
2019-04-19T01:28:13.910Z,14.98
2019-04-19T01:30:41.767Z,12.82
2019-04-19T01:33:07.445Z,16.70
2019-04-19T01:35:41.065Z,18.60
2019-04-19T01:38:08.407Z,16.35
2019-04-19T01:41:01.725Z,15.15
2019-04-19T01:43:28.986Z,15.03
2019-04-19T01:46:07.018Z,15.35
2019-04-19T01:48:46.882Z,13.50
2019-04-19T01:51:48.038Z,12.55
2019-04-19T01:54:36.990Z,17.45
2019-04-19T01:56:56.816Z,16.17
2019-04-19T01:59:24.765Z,17.12
2019-04-19T02:01:59.422Z,17.62
2019-04-19T02:04:26.160Z,17.05
2019-04-19T02:06:51.585Z,17.13
2019-04-19T02:09:31.367Z,15.28
2019-04-19T02:12:09.171Z,21.07
2019-04-19T02:14:35.517Z,14.83
2019-04-19T02:17:00.471Z,13.40
2019-04-19T02:19:26.526Z,15.88
2019-04-19T02:21:55.205Z,14.43
2019-04-19T02:24:29.735Z,13.80
2019-04-19T02:26:59.348Z,21.02
2019-04-19T02:29:27.078Z,14.43
2019-04-19T02:37:19.639Z,13.60
2019-04-19T02:39:56.188Z,13.28
2019-04-19T02:42:27.165Z,15.32
2019-04-19T02:45:00.690Z,12.83
2019-04-19T02:49:54.505Z,13.13
2019-04-19T02:57:42.396Z,14.43
2019-04-19T03:00:30.697Z,18.23
2019-04-19T03:05:22.776Z,15.43
2019-04-19T03:07:26.043Z,14.20
2019-04-19T03:09:54.158Z,20.50
2019-04-19T03:12:42.665Z,16.25
2019-04-19T03:15:07.080Z,14.50
2019-04-19T03:17:39.091Z,13.20
2019-04-19T03:20:09.288Z,14.23
2019-04-19T03:22:39.156Z,13.40
2019-04-19T03:25:12.257Z,15.13
2019-04-19T03:27:34.926Z,14.10
2019-04-19T03:30:07.361Z,15.38
2019-04-19T03:35:06.422Z,12.73
2019-04-19T03:37:38.055Z,14.85
2019-04-19T03:40:20.341Z,13.60
2019-04-19T03:43:10.634Z,14.30
2019-04-19T03:45:34.840Z,13.60
2019-04-19T03:48:08.875Z,16.40
2019-04-19T03:50:37.408Z,16.43
2019-04-19T03:53:09.171Z,15.70
2019-04-19T03:55:39.376Z,15.70
2019-04-19T03:57:58.296Z,14.85
2019-04-19T04:00:19.535Z,14.10
2019-04-19T04:02:49.577Z,12.53
2019-04-19T04:05:21.056Z,12.20
2019-04-19T04:08:02.735Z,14.00
2019-04-19T04:10:35.570Z,14.63
2019-04-19T04:13:30.356Z,15.30
2019-04-19T04:16:19.617Z,12.30
2019-04-19T04:18:38.735Z,16.55
2019-04-19T04:21:07.536Z,17.95
2019-04-19T04:23:42.153Z,15.28
2019-04-19T04:26:11.514Z,14.43
2019-04-19T04:28:51.257Z,13.90
2019-04-19T04:31:15.078Z,16.25
2019-04-19T04:33:46.074Z,13.57
2019-04-19T04:36:25.245Z,17.23
2019-04-19T04:38:40.741Z,14.95
2019-04-19T04:41:11.010Z,15.23
2019-04-19T04:43:44.626Z,17.05
2019-04-19T04:46:59.191Z,13.93
2019-04-19T04:49:45.989Z,18.90
2019-04-19T04:52:10.752Z,13.80
2019-04-19T04:54:31.346Z,15.83
2019-04-19T04:57:26.532Z,17.32
2019-04-19T04:59:50.765Z,15.25
2019-04-19T05:02:37.762Z,15.72
2019-04-19T05:05:05.636Z,16.80
2019-04-19T05:07:34.094Z,13.83
2019-04-19T05:10:07.308Z,14.23
2019-04-19T05:12:46.632Z,14.25
2019-04-19T05:14:58.920Z,18.67
2019-04-19T05:20:12.125Z,14.58
2019-04-19T05:22:31.696Z,15.48
2019-04-19T05:25:17.695Z,13.20
2019-04-19T05:27:38.994Z,17.42
2019-04-19T05:29:51.625Z,13.80
2019-04-19T05:32:24.207Z,18.80
2019-04-19T05:35:06.887Z,13.78
2019-04-19T05:37:40.898Z,13.10
2019-04-19T05:40:16.595Z,12.10
2019-04-19T05:43:11.841Z,18.07
2019-04-19T05:45:43.947Z,12.75
2019-04-19T05:48:01.498Z,13.80
2019-04-19T05:50:40.566Z,12.30
2019-04-19T05:53:05.193Z,13.50
2019-04-19T05:55:21.201Z,16.20
2019-04-19T05:58:05.839Z,13.03
2019-04-19T06:00:39.085Z,11.20
2019-04-19T06:03:06.578Z,12.85
2019-04-19T06:05:48.486Z,15.72
2019-04-19T06:08:05.093Z,11.97
2019-04-19T06:10:25.476Z,15.53
2019-04-19T06:13:00.394Z,13.93
2019-04-19T06:15:49.602Z,14.60
2019-04-19T06:18:31.586Z,15.38
2019-04-19T06:21:13.932Z,13.90
2019-04-19T06:23:38.232Z,14.67
2019-04-19T06:26:36.938Z,13.05
2019-04-19T06:28:44.195Z,13.10
2019-04-19T06:31:12.948Z,12.95
2019-04-19T06:33:38.717Z,15.23
2019-04-19T06:35:53.651Z,16.17
2019-04-19T06:38:18.423Z,14.00
2019-04-19T06:40:54.060Z,13.38
2019-04-19T06:43:30.599Z,18.27
2019-04-19T06:46:02.634Z,14.47
2019-04-19T06:48:21.987Z,13.43
2019-04-19T06:50:53.810Z,14.80
2019-04-19T06:53:16.967Z,18.52
2019-04-19T06:55:49.839Z,17.10
2019-04-19T06:58:23.778Z,18.05
2019-04-19T07:01:00.794Z,12.07
2019-04-19T07:03:17.687Z,15.08
2019-04-19T07:06:05.253Z,13.90
2019-04-19T07:09:00.779Z,14.87
2019-04-19T07:11:19.778Z,14.78
2019-04-19T07:13:30.712Z,18.73
2019-04-19T07:16:07.419Z,14.43
2019-04-19T07:18:30.310Z,19.27
2019-04-19T07:21:10.507Z,15.20
2019-04-19T07:23:33.143Z,18.50
2019-04-19T07:26:09.962Z,17.17
2019-04-19T07:28:23.010Z,16.23
2019-04-19T07:30:49.219Z,14.10
2019-04-19T07:33:23.453Z,14.10
2019-04-19T07:36:08.870Z,19.10
2019-04-19T07:38:33.199Z,15.63
2019-04-19T07:41:07.104Z,13.13
2019-04-19T07:43:48.307Z,13.50
2019-04-19T07:46:21.024Z,16.00
2019-04-19T07:48:55.461Z,16.90
2019-04-19T07:51:30.117Z,12.82
2019-04-19T07:53:54.890Z,16.70
2019-04-19T07:56:37.155Z,16.55
2019-04-19T07:59:19.747Z,15.72
2019-04-19T08:02:04.699Z,14.93
2019-04-19T08:04:38.565Z,16.77
2019-04-19T08:09:18.911Z,17.75
2019-04-19T08:11:58.861Z,19.67
2019-04-19T08:29:03.479Z,19.55
2019-04-19T08:31:23.197Z,19.32
2019-04-19T08:33:51.182Z,17.15
2019-04-19T08:36:25.564Z,16.30
2019-04-19T08:39:07.034Z,16.45
2019-04-19T08:41:31.624Z,14.35
2019-04-19T08:44:05.019Z,19.02
2019-04-19T08:46:36.705Z,18.00
2019-04-19T08:49:28.540Z,28.98
2019-04-19T08:51:55.955Z,15.32
2019-04-19T08:54:48.990Z,14.28
2019-04-19T08:57:02.932Z,15.98
2019-04-19T08:59:51.272Z,15.60
2019-04-19T09:02:16.771Z,16.55
2019-04-19T09:04:44.054Z,17.80
2019-04-19T09:09:50.754Z,14.25
2019-04-19T09:12:12.185Z,16.52
2019-04-19T09:14:49.972Z,13.88
2019-04-19T09:17:19.091Z,14.63
2019-04-19T09:20:00.905Z,17.80
2019-04-19T09:22:16.613Z,15.88
2019-04-19T09:24:38.484Z,19.30
2019-04-19T09:27:13.593Z,21.95
2019-04-19T09:29:45.024Z,14.73
2019-04-19T09:32:03.529Z,16.87
2019-04-19T09:34:26.999Z,15.43
2019-04-19T09:37:06.960Z,15.28
2019-04-19T09:39:41.455Z,13.58
2019-04-19T09:42:02.201Z,17.65
2019-04-19T09:44:34.710Z,14.90
2019-04-19T09:46:55.412Z,14.58
2019-04-19T09:49:43.074Z,18.67
2019-04-19T09:52:14.041Z,18.73
2019-04-19T09:54:46.943Z,15.88
2019-04-19T09:57:15.780Z,16.95
2019-04-19T09:59:31.035Z,14.90
2019-04-19T10:01:58.023Z,19.23
2019-04-19T10:04:25.122Z,17.12
2019-04-19T10:06:54.729Z,16.32
2019-04-19T10:09:24.140Z,20.50
2019-04-19T10:11:52.971Z,13.35
2019-04-19T10:14:21.679Z,12.88
2019-04-19T10:16:56.458Z,15.72
2019-04-19T10:19:24.959Z,13.22
2019-04-19T10:22:02.613Z,11.43
2019-04-19T10:24:31.455Z,13.65
2019-04-19T10:27:05.625Z,17.23
2019-04-19T10:29:38.491Z,14.43
2019-04-19T10:32:10.627Z,13.40
2019-04-19T10:34:38.703Z,13.80
2019-04-19T10:37:07.888Z,16.90
2019-04-19T10:39:37.246Z,13.85
2019-04-19T10:42:06.260Z,15.28
2019-04-19T10:44:34.317Z,11.15
2019-04-19T10:47:02.939Z,17.80
2019-04-19T10:49:38.948Z,12.18
2019-04-19T10:52:04.979Z,11.90
2019-04-19T10:54:32.974Z,19.98
2019-04-19T10:57:06.680Z,18.13
2019-04-19T10:59:36.499Z,14.78
2019-04-19T11:02:04.612Z,11.28
2019-04-19T11:04:33.075Z,17.23
2019-04-19T11:07:01.697Z,14.65
2019-04-19T11:09:29.752Z,11.35
2019-04-19T11:11:59.647Z,17.50
2019-04-19T11:14:28.247Z,15.15
2019-04-19T11:16:57.622Z,15.88
2019-04-19T11:19:44.573Z,16.93
2019-04-19T11:21:56.398Z,15.28
2019-04-19T11:24:25.605Z,13.53
2019-04-19T11:26:54.984Z,11.18
2019-04-19T11:29:23.965Z,13.98
2019-04-19T11:32:17.903Z,15.53
2019-04-19T11:34:49.864Z,12.90
2019-04-19T11:37:18.460Z,14.20
2019-04-19T11:39:47.116Z,13.70
2019-04-19T11:42:15.248Z,11.47
2019-04-19T11:44:43.846Z,12.98
2019-04-19T11:47:13.171Z,19.80
2019-04-19T11:49:44.354Z,12.40
2019-04-19T11:52:17.975Z,15.83
2019-04-19T11:54:46.853Z,12.10
2019-04-19T11:57:26.110Z,15.40
2019-04-19T12:00:12.099Z,15.68
2019-04-19T12:02:42.137Z,15.03
2019-04-19T12:05:16.448Z,13.00
2019-04-19T12:07:40.287Z,13.22
2019-04-19T12:10:08.606Z,13.40
2019-04-19T12:12:37.287Z,9.93
2019-04-19T12:15:08.241Z,13.72
2019-04-19T12:17:37.763Z,13.50
2019-04-19T12:20:09.547Z,18.87
2019-04-19T12:22:38.007Z,13.80
2019-04-19T12:25:07.935Z,13.80
2019-04-19T12:27:35.979Z,12.93
2019-04-19T12:30:05.459Z,9.70
2019-04-19T12:32:39.424Z,12.35
2019-04-19T12:35:08.836Z,10.40
2019-04-19T12:37:37.422Z,12.53
2019-04-19T12:40:06.723Z,17.20
2019-04-19T12:42:35.938Z,12.03
2019-04-19T12:45:06.020Z,12.95
2019-04-19T12:47:35.200Z,12.78
2019-04-19T12:50:08.631Z,15.32
2019-04-19T12:52:33.651Z,11.57
2019-04-19T12:55:01.999Z,11.30
2019-04-19T12:57:34.053Z,16.47
2019-04-19T13:00:02.773Z,12.05
2019-04-19T13:02:42.001Z,8.70
2019-04-19T13:05:14.416Z,10.30
2019-04-19T13:07:43.092Z,9.95
2019-04-19T13:10:11.384Z,11.57
2019-04-19T13:12:39.327Z,17.42
2019-04-19T13:15:09.475Z,11.37
2019-04-19T13:17:38.175Z,8.95
2019-04-19T13:20:12.764Z,8.88
2019-04-19T13:22:36.523Z,16.15
2019-04-19T13:25:05.598Z,10.35
2019-04-19T13:27:40.332Z,12.85
2019-04-19T13:30:12.055Z,11.55
2019-04-19T13:32:33.610Z,12.00
2019-04-19T13:35:03.582Z,12.05
2019-04-19T13:37:45.258Z,13.60
2019-04-19T13:40:30.259Z,9.83
2019-04-19T13:43:01.402Z,12.07
2019-04-19T13:45:31.933Z,11.70
2019-04-19T13:47:58.708Z,11.78
2019-04-19T13:50:33.079Z,11.60
2019-04-19T13:52:57.485Z,12.28
2019-04-19T13:55:26.580Z,10.13
2019-04-19T13:57:55.600Z,10.43
2019-04-19T14:00:40.450Z,12.03
2019-04-19T14:03:09.670Z,12.20
2019-04-19T14:05:38.613Z,13.30
2019-04-19T14:08:06.911Z,19.07
2019-04-19T14:10:35.158Z,10.82
2019-04-19T14:13:05.089Z,13.80
2019-04-19T14:15:35.020Z,12.43
2019-04-19T14:18:04.747Z,13.10
2019-04-19T14:20:40.339Z,11.68
2019-04-19T14:23:03.950Z,11.90
2019-04-19T14:25:32.058Z,8.40
2019-04-19T14:28:00.355Z,11.95
2019-04-19T14:30:29.670Z,13.90
2019-04-19T14:32:58.577Z,10.63
2019-04-19T14:35:27.940Z,9.93
2019-04-19T14:37:56.908Z,9.35
2019-04-19T14:40:25.809Z,13.28
2019-04-19T14:42:54.182Z,9.30
2019-04-19T14:45:24.224Z,8.98
2019-04-19T14:47:52.968Z,12.30
2019-04-19T14:50:21.141Z,13.10
2019-04-19T14:52:49.386Z,13.38
2019-04-19T14:55:18.109Z,10.38
2019-04-19T14:57:46.588Z,11.63
2019-04-19T15:00:17.126Z,10.20
2019-04-19T15:03:05.003Z,9.33
2019-04-19T15:05:35.440Z,10.00
2019-04-19T15:08:04.478Z,12.47
2019-04-19T15:10:33.496Z,12.90
2019-04-19T15:13:02.860Z,11.18
2019-04-19T15:15:31.585Z,10.80
2019-04-19T15:17:59.965Z,9.90
2019-04-19T15:20:28.317Z,13.08
2019-04-19T15:22:56.295Z,13.18
2019-04-19T15:25:25.681Z,13.30
2019-04-19T15:27:54.952Z,12.18
2019-04-19T15:30:23.735Z,9.93
2019-04-19T15:32:52.317Z,14.20
2019-04-19T15:35:21.426Z,10.03
2019-04-19T15:37:49.818Z,10.45
2019-04-19T15:40:20.268Z,12.28
2019-04-19T15:42:50.555Z,15.43
2019-04-19T15:45:20.958Z,9.45
2019-04-19T15:47:48.883Z,12.13
2019-04-19T15:50:17.982Z,13.17
2019-04-19T15:52:46.693Z,11.90
2019-04-19T15:55:15.194Z,10.35
2019-04-19T15:57:43.904Z,14.38
2019-04-19T16:00:16.019Z,9.90
2019-04-19T16:02:49.620Z,8.40
2019-04-19T16:05:38.037Z,9.05
2019-04-19T16:08:29.092Z,9.30
2019-04-19T16:11:16.485Z,7.45
2019-04-19T16:13:45.975Z,7.80
2019-04-19T16:16:14.408Z,7.90
2019-04-19T16:18:42.777Z,7.80
2019-04-19T16:21:23.939Z,17.00
2019-04-19T16:23:41.030Z,19.42
2019-04-19T16:26:09.233Z,7.80
2019-04-19T16:28:37.460Z,10.70
2019-04-19T16:31:06.438Z,9.60
2019-04-19T16:33:36.038Z,11.80
2019-04-19T16:36:04.862Z,9.33
2019-04-19T16:38:32.921Z,8.65
2019-04-19T16:41:01.412Z,11.60
2019-04-19T16:43:29.739Z,12.47
2019-04-19T16:46:08.022Z,8.15
2019-04-19T16:48:28.429Z,10.18
2019-04-19T16:50:56.740Z,7.37
2019-04-19T16:53:26.067Z,8.47
2019-04-19T16:55:54.629Z,8.63
2019-04-19T16:58:24.337Z,9.70
2019-04-19T17:00:52.623Z,10.70
2019-04-19T17:03:21.593Z,10.68
2019-04-19T17:05:50.750Z,8.88
2019-04-19T17:08:19.960Z,16.25
2019-04-19T17:10:49.085Z,9.73
2019-04-19T17:13:17.658Z,10.88
2019-04-19T17:16:03.035Z,9.90
2019-04-19T17:18:41.303Z,9.13
2019-04-19T17:21:11.185Z,6.22
2019-04-19T17:23:40.475Z,6.50
2019-04-19T17:26:08.914Z,12.45
2019-04-19T17:28:36.955Z,5.67
2019-04-19T17:31:06.316Z,5.78
2019-04-19T17:33:34.382Z,6.47
2019-04-19T17:36:03.997Z,7.37
2019-04-19T17:39:47.088Z,10.28
2019-04-19T17:41:02.861Z,6.78
2019-04-19T17:43:31.811Z,7.95
2019-04-19T17:46:00.266Z,6.87
2019-04-19T17:48:28.485Z,8.53
2019-04-19T17:50:57.698Z,10.43
2019-04-19T17:53:32.674Z,5.62
2019-04-19T17:55:58.086Z,5.70
2019-04-19T17:58:26.021Z,7.20
2019-04-19T18:00:54.544Z,9.60
2019-04-19T18:03:22.808Z,18.55
2019-04-19T18:05:51.908Z,7.10
2019-04-19T18:08:26.196Z,11.60
2019-04-19T18:10:53.989Z,8.20
2019-04-19T18:13:21.204Z,8.40
2019-04-19T18:15:50.910Z,7.55
2019-04-19T18:18:20.852Z,9.10
2019-04-19T18:20:55.707Z,10.30
2019-04-19T18:23:32.585Z,7.87
2019-04-19T18:25:52.861Z,7.40
2019-04-19T18:28:25.277Z,9.23
2019-04-19T18:30:53.529Z,9.90
2019-04-19T18:33:49.312Z,9.43
2019-04-19T18:36:21.634Z,10.60
2019-04-19T18:38:46.250Z,12.70
2019-04-19T18:41:15.523Z,11.45
2019-04-19T18:43:57.383Z,7.58
2019-04-19T18:46:15.001Z,9.35
2019-04-19T18:48:43.145Z,10.43
2019-04-19T18:51:13.313Z,11.78
2019-04-19T18:53:54.559Z,9.35
2019-04-19T18:56:17.933Z,7.80
2019-04-19T18:58:42.805Z,5.95
2019-04-19T19:01:22.879Z,7.08
2019-04-19T19:03:45.210Z,9.35
2019-04-19T19:06:12.844Z,7.40
2019-04-19T19:08:50.353Z,9.28
2019-04-19T19:11:16.338Z,7.72
2019-04-19T19:13:42.781Z,8.60
2019-04-19T19:16:18.608Z,7.95
2019-04-19T19:18:48.087Z,10.50
2019-04-19T19:21:14.539Z,8.00
2019-04-19T19:23:57.526Z,11.33
2019-04-19T19:26:21.348Z,8.33
2019-04-19T19:28:40.613Z,7.33
2019-04-19T19:31:09.197Z,14.23
2019-04-19T19:33:44.596Z,11.03
2019-04-19T19:36:08.959Z,8.23
2019-04-19T19:38:40.175Z,11.18
2019-04-19T19:41:26.866Z,12.75
2019-04-19T19:43:50.923Z,10.00
2019-04-19T19:46:42.968Z,18.62
2019-04-19T19:51:23.759Z,8.70
2019-04-19T19:54:02.653Z,9.48
2019-04-19T19:56:43.110Z,8.50
2019-04-19T19:58:44.853Z,9.27
2019-04-19T20:01:20.865Z,9.35
2019-04-19T20:03:43.445Z,9.10
2019-04-19T20:06:12.582Z,6.45
2019-04-19T20:08:41.139Z,6.47
2019-04-19T20:11:12.022Z,7.28
2019-04-19T20:13:42.580Z,9.75
2019-04-19T20:16:14.770Z,7.25
2019-04-19T20:18:39.458Z,5.05
2019-04-19T20:21:11.808Z,4.83
2019-04-19T20:23:54.043Z,8.55
2019-04-19T20:26:16.382Z,7.83
2019-04-19T20:28:37.841Z,7.78
2019-04-19T20:31:07.142Z,9.85
2019-04-19T20:33:45.929Z,7.40
2019-04-19T20:36:08.793Z,6.42
2019-04-19T20:38:40.353Z,8.80
2019-04-19T20:41:09.853Z,6.80
2019-04-19T20:43:53.856Z,5.87
2019-04-19T20:46:11.787Z,5.60
2019-04-19T20:48:35.522Z,7.45
2019-04-19T20:51:11.690Z,8.53
2019-04-19T20:53:42.696Z,7.80
2019-04-19T20:56:46.869Z,5.12
2019-04-19T20:58:55.748Z,13.28
2019-04-19T21:01:21.190Z,6.05
2019-04-19T21:03:49.765Z,5.90
2019-04-19T21:06:24.247Z,8.47
2019-04-19T21:08:50.047Z,8.38
2019-04-19T21:11:19.384Z,5.72
2019-04-19T21:13:52.343Z,6.10
2019-04-19T21:16:18.506Z,11.25
2019-04-19T21:18:49.419Z,7.03
2019-04-19T21:21:18.188Z,6.30
2019-04-19T21:23:57.160Z,10.55
2019-04-19T21:26:23.098Z,7.67
2019-04-19T21:28:49.845Z,7.17
2019-04-19T21:31:17.675Z,7.55
2019-04-19T21:33:51.260Z,8.33
2019-04-19T21:36:17.894Z,6.60
2019-04-19T21:38:52.136Z,7.45
2019-04-19T21:41:21.848Z,8.83
2019-04-19T21:43:46.208Z,7.15
2019-04-19T21:46:19.188Z,6.00
2019-04-19T21:48:44.487Z,7.83
2019-04-19T21:51:20.212Z,7.90
2019-04-19T21:53:47.415Z,7.00
2019-04-19T21:56:16.212Z,10.93
2019-04-19T21:58:50.055Z,8.38
2019-04-19T22:01:15.463Z,8.28
2019-04-19T22:03:41.301Z,10.27
2019-04-19T22:06:17.496Z,8.38
2019-04-19T22:08:41.707Z,6.33
2019-04-19T22:11:10.327Z,6.80
2019-04-19T22:13:43.459Z,6.72
2019-04-19T22:16:10.605Z,8.18
2019-04-19T22:18:44.189Z,9.98
2019-04-19T22:21:10.563Z,9.55
2019-04-19T22:23:43.600Z,6.67
2019-04-19T22:26:21.158Z,8.58
2019-04-19T22:28:41.603Z,8.40
2019-04-19T22:31:11.272Z,8.55
2019-04-19T22:33:40.670Z,7.50
2019-04-19T22:36:10.512Z,11.35
2019-04-19T22:38:42.392Z,10.32
2019-04-19T22:41:13.759Z,6.58
2019-04-19T22:43:40.591Z,9.20
2019-04-19T22:46:12.003Z,7.45
2019-04-19T22:48:39.798Z,7.60
2019-04-19T22:51:12.479Z,8.13
2019-04-19T22:53:41.283Z,7.80
2019-04-19T22:56:21.674Z,8.60
2019-04-19T22:58:40.210Z,8.10
2019-04-19T23:01:20.391Z,7.70
2019-04-19T23:03:46.670Z,6.65
2019-04-19T23:06:20.717Z,8.18
2019-04-19T23:08:44.993Z,6.37
2019-04-19T23:11:15.260Z,9.15
2019-04-19T23:13:45.304Z,12.50
2019-04-19T23:16:15.294Z,8.15
2019-04-19T23:18:47.015Z,8.78
2019-04-19T23:21:18.532Z,7.73
2019-04-19T23:23:45.023Z,11.07
2019-04-19T23:26:27.030Z,7.40
2019-04-19T23:28:46.148Z,7.80
2019-04-19T23:31:17.274Z,8.23
2019-04-19T23:33:50.165Z,9.30
2019-04-19T23:36:20.656Z,7.20
2019-04-19T23:38:45.410Z,11.60
2019-04-19T23:41:13.616Z,9.55
2019-04-19T23:43:43.957Z,7.58
2019-04-19T23:46:20.830Z,9.80
2019-04-19T23:48:42.656Z,7.70
2019-04-19T23:51:14.678Z,7.20
2019-04-19T23:53:44.806Z,9.40
2019-04-19T23:56:22.367Z,7.90
2019-04-19T23:58:44.325Z,9.50
